createdAt,value
2022-09-23T04:47:33.128Z,77239.16
2022-09-23T04:50:00.103Z,77243.16
2022-09-23T04:52:27.245Z,77239.16
2022-09-23T04:54:53.635Z,77243.16
2022-09-23T04:57:19.954Z,77243.16
2022-09-23T04:59:47.120Z,77247.16
2022-09-23T05:02:13.529Z,77243.16
2022-09-23T05:04:41.167Z,77247.16
2022-09-23T05:07:08.615Z,77243.16
2022-09-23T05:09:34.951Z,77247.16
2022-09-23T05:12:02.106Z,77243.16
2022-09-23T05:14:28.446Z,77243.16
2022-09-23T05:16:54.897Z,77247.16
2022-09-23T05:19:21.355Z,77247.16
2022-09-23T05:21:47.659Z,77243.16
2022-09-23T05:24:14.119Z,77247.16
2022-09-23T05:26:40.539Z,77247.16
2022-09-23T05:29:06.992Z,77247.16
2022-09-23T05:31:33.469Z,77247.16
2022-09-23T05:34:01.487Z,77247.16
2022-09-23T05:36:28.615Z,77249.16
2022-09-23T05:38:56.863Z,77243.16
2022-09-23T05:41:23.671Z,77245.16
2022-09-23T05:43:53.813Z,77243.16
2022-09-23T05:46:24.037Z,77245.16
2022-09-23T05:48:50.478Z,77243.16
2022-09-23T05:51:21.437Z,77239.16
2022-09-23T05:53:48.344Z,77239.16
2022-09-23T05:56:16.243Z,77237.16
2022-09-23T05:58:43.019Z,77245.16
2022-09-23T06:01:13.653Z,77239.16
2022-09-23T06:03:41.110Z,77241.16
2022-09-23T06:06:07.885Z,77243.16
2022-09-23T06:08:34.628Z,77249.16
2022-09-23T06:11:07.970Z,77243.16
2022-09-23T06:13:35.437Z,77245.16
2022-09-23T06:16:02.383Z,77247.16
2022-09-23T06:18:29.003Z,77247.16
2022-09-23T06:20:55.368Z,77249.16
2022-09-23T06:23:25.371Z,77251.16
2022-09-23T06:25:52.798Z,77249.16
2022-09-23T06:28:19.937Z,77251.16
2022-09-23T06:30:46.341Z,77251.16
2022-09-23T06:33:12.679Z,77255.16
2022-09-23T06:35:39.296Z,77255.16
2022-09-23T06:38:05.767Z,77255.16
2022-09-23T06:40:32.595Z,77259.19
2022-09-23T06:42:59.669Z,77255.16
2022-09-23T06:45:27.160Z,77255.16
2022-09-23T06:47:56.163Z,77251.16
2022-09-23T06:50:24.076Z,77251.16
2022-09-23T06:52:56.136Z,77251.16
2022-09-23T06:55:24.394Z,77251.16
2022-09-23T06:57:50.883Z,77251.16
2022-09-23T07:00:17.224Z,77247.16
2022-09-23T07:02:43.679Z,77251.16
2022-09-23T07:05:10.503Z,77247.16
2022-09-23T07:07:37.466Z,77243.16
2022-09-23T07:10:05.838Z,77251.16
2022-09-23T07:12:32.577Z,77257.19
2022-09-23T07:14:59.100Z,77253.16
2022-09-23T07:17:25.680Z,77251.16
2022-09-23T07:19:52.332Z,77259.19
2022-09-23T07:22:18.671Z,77257.19
2022-09-23T07:24:46.660Z,77259.19
2022-09-23T07:27:16.667Z,77259.19
2022-09-23T07:29:48.458Z,77259.19
2022-09-23T07:32:15.192Z,77263.19
2022-09-23T07:34:43.145Z,77263.19
2022-09-23T07:37:10.627Z,77263.19
2022-09-23T07:39:37.144Z,77263.19
2022-09-23T07:42:05.259Z,77259.19
2022-09-23T07:44:32.138Z,77261.19
2022-09-23T07:46:59.523Z,77255.16
2022-09-23T07:49:26.719Z,77263.19
2022-09-23T07:51:53.123Z,77263.19
2022-09-23T07:54:19.998Z,77259.19
2022-09-23T07:56:47.000Z,77251.16
2022-09-23T07:59:15.554Z,77259.19
2022-09-23T08:01:44.225Z,77253.16
2022-09-23T08:04:15.856Z,77247.16
2022-09-23T08:06:43.458Z,77247.16
2022-09-23T08:09:10.039Z,77243.16
2022-09-23T08:11:41.711Z,77249.16
2022-09-23T08:14:11.274Z,77247.16
2022-09-23T08:16:37.602Z,77241.16
2022-09-23T08:21:31.585Z,77235.16
2022-09-23T08:23:58.250Z,77233.16
2022-09-23T08:26:24.734Z,77227.16
2022-09-23T08:28:54.498Z,77237.16
2022-09-23T08:31:22.003Z,77235.16
2022-09-23T08:33:48.431Z,77235.16
2022-09-23T08:36:14.977Z,77239.16
2022-09-23T08:38:41.579Z,77233.16
2022-09-23T08:41:12.657Z,77225.16
2022-09-23T08:43:40.815Z,77223.16
2022-09-23T08:46:10.773Z,77219.13
2022-09-23T08:48:41.042Z,77219.13
2022-09-23T08:51:11.209Z,77215.13
2022-09-23T08:53:38.059Z,77213.13
2022-09-23T08:56:12.456Z,77211.13
2022-09-23T08:58:49.596Z,77211.13
2022-09-23T09:01:34.653Z,77211.13
2022-09-23T09:04:02.597Z,77211.13
2022-09-23T09:06:41.900Z,77203.13
2022-09-23T09:09:23.396Z,77201.13
2022-09-23T09:11:51.311Z,77199.13
2022-09-23T09:14:20.121Z,77199.13
2022-09-23T09:17:01.639Z,77203.13
2022-09-23T09:19:47.325Z,77199.13
2022-09-23T09:22:17.445Z,77203.13
2022-09-23T09:24:45.850Z,77195.13
2022-09-23T09:27:13.042Z,77195.13
2022-09-23T09:29:42.348Z,77193.13
2022-09-23T09:32:14.858Z,77189.13
2022-09-23T09:34:47.345Z,77195.13
2022-09-23T09:37:35.816Z,77191.13
2022-09-23T09:40:02.522Z,77185.09
2022-09-23T09:42:40.306Z,77183.09
2022-09-23T09:45:14.897Z,77179.09
2022-09-23T09:48:02.419Z,77175.09
2022-09-23T09:50:43.766Z,77171.09
2022-09-23T09:53:14.965Z,77179.09
2022-09-23T09:55:41.502Z,77175.09
2022-09-23T09:58:13.364Z,77175.09
2022-09-23T10:00:44.603Z,77167.09
2022-09-23T10:03:13.693Z,77165.09
2022-09-23T10:05:46.086Z,77161.09
2022-09-23T10:08:18.488Z,77165.09
2022-09-23T10:10:54.886Z,77163.09
2022-09-23T10:13:24.024Z,77163.09
2022-09-23T10:15:54.670Z,77161.09
2022-09-23T10:18:26.675Z,77157.09
2022-09-23T10:20:59.516Z,77157.09
2022-09-23T10:23:28.113Z,77153.09
2022-09-23T10:26:00.124Z,77149.06
2022-09-23T10:28:43.827Z,77151.06
2022-09-23T10:31:15.044Z,77147.06
2022-09-23T10:33:42.773Z,77143.06
2022-09-23T10:36:09.583Z,77139.06
2022-09-23T10:38:36.391Z,77147.06
2022-09-23T10:41:21.592Z,77143.06
2022-09-23T10:44:12.660Z,77143.06
2022-09-23T10:46:47.079Z,77143.06
2022-09-23T10:49:38.776Z,77139.06
2022-09-23T10:52:20.403Z,77139.06
2022-09-23T10:54:56.222Z,77137.06
2022-09-23T10:57:42.486Z,77139.06
2022-09-23T11:00:27.437Z,77139.06
2022-09-23T11:03:13.005Z,77137.06
2022-09-23T11:05:49.162Z,77127.06
2022-09-23T11:08:34.330Z,77129.06
2022-09-23T11:11:11.514Z,77123.06
2022-09-23T11:13:54.939Z,77131.06
2022-09-23T11:16:39.081Z,77125.06
2022-09-23T11:19:32.345Z,77123.06
2022-09-23T11:22:32.316Z,77119.06
2022-09-23T11:25:04.608Z,77111.03
2022-09-23T11:27:39.064Z,77115.03
2022-09-23T11:30:08.455Z,77111.03
2022-09-23T11:32:39.605Z,77115.03
2022-09-23T11:35:21.289Z,77109.03
2022-09-23T11:38:01.526Z,77103.03
2022-09-23T11:40:31.510Z,77091.03
2022-09-23T11:43:01.354Z,77079.00
2022-09-23T11:45:32.205Z,77071.00
2022-09-23T11:48:01.663Z,77059.00
2022-09-23T11:50:32.771Z,77042.97
2022-09-23T11:53:08.513Z,77038.97
2022-09-23T11:55:49.839Z,77030.97
2022-09-23T11:58:26.061Z,77034.97
2022-09-23T12:01:00.724Z,77034.97
2022-09-23T12:03:46.699Z,77042.97
2022-09-23T12:06:21.321Z,77038.97
2022-09-23T12:08:49.269Z,77040.97
2022-09-23T12:11:24.941Z,77042.97
2022-09-23T12:13:54.488Z,77042.97
2022-09-23T12:16:35.065Z,77034.97
2022-09-23T12:19:18.878Z,77032.97
2022-09-23T12:21:52.275Z,77026.97
2022-09-23T12:24:24.854Z,77026.97
2022-09-23T12:26:54.239Z,77024.97
2022-09-23T12:29:21.006Z,77022.97
2022-09-23T12:31:48.248Z,77022.97
2022-09-23T12:34:23.366Z,77012.97
2022-09-23T12:36:49.743Z,77026.97
2022-09-23T12:39:16.128Z,77018.97
2022-09-23T12:41:43.700Z,77016.97
2022-09-23T12:44:13.494Z,77018.97
2022-09-23T12:46:40.839Z,77022.97
2022-09-23T12:49:27.457Z,77022.97
2022-09-23T12:52:11.900Z,77024.97
2022-09-23T12:54:39.323Z,77018.97
2022-09-23T12:57:24.531Z,77014.97
2022-09-23T12:59:55.907Z,77014.97
2022-09-23T13:02:26.050Z,77014.97
2022-09-23T13:05:16.011Z,77016.97
2022-09-23T13:07:47.275Z,77018.97
2022-09-23T13:10:27.772Z,77018.97
2022-09-23T13:12:55.523Z,77010.97
2022-09-23T13:15:21.840Z,77014.97
2022-09-23T13:17:48.228Z,77004.94
2022-09-23T13:20:20.669Z,77006.94
2022-09-23T13:22:51.684Z,77004.94
2022-09-23T13:25:44.505Z,76998.94
2022-09-23T13:28:21.357Z,76998.94
2022-09-23T13:30:48.346Z,76996.94
2022-09-23T13:33:18.549Z,76992.94
2022-09-23T13:35:50.684Z,76990.94
2022-09-23T13:38:17.029Z,76986.94
2022-09-23T13:40:44.260Z,76986.94
2022-09-23T13:43:21.930Z,76984.94
2022-09-23T13:45:49.959Z,76984.94
2022-09-23T13:48:16.699Z,76982.94
2022-09-23T13:50:45.127Z,76978.94
2022-09-23T13:53:13.202Z,76970.91
2022-09-23T13:55:40.054Z,76966.91
2022-09-23T13:58:15.044Z,76960.91
2022-09-23T14:00:41.441Z,76958.91
2022-09-23T14:03:22.783Z,76954.91
2022-09-23T14:05:49.632Z,76954.91
2022-09-23T14:08:16.007Z,76958.91
2022-09-23T14:10:46.100Z,76946.91
2022-09-23T14:13:17.099Z,76950.91
2022-09-23T14:15:44.135Z,76950.91
2022-09-23T14:18:17.691Z,76946.91
2022-09-23T14:20:48.188Z,76946.91
2022-09-23T14:23:14.767Z,76940.91
2022-09-23T14:25:42.866Z,76934.91
2022-09-23T14:28:13.172Z,76936.91
2022-09-23T14:30:39.667Z,76932.88
2022-09-23T14:33:10.943Z,76934.91
2022-09-23T14:35:42.658Z,76928.88
2022-09-23T14:38:27.574Z,76930.88
2022-09-23T14:41:15.019Z,76930.88
2022-09-23T14:43:55.459Z,76930.88
2022-09-23T14:46:23.430Z,76924.88
2022-09-23T14:49:07.108Z,76922.88
2022-09-23T14:51:53.254Z,76922.88
2022-09-23T14:54:32.659Z,76922.88
2022-09-23T14:56:59.595Z,76918.88
2022-09-23T14:59:33.197Z,76918.88
2022-09-23T15:01:59.828Z,76918.88
2022-09-23T15:04:27.595Z,76916.88
2022-09-23T15:06:55.646Z,76918.88
2022-09-23T15:09:32.572Z,76920.88
2022-09-23T15:12:05.069Z,76924.88
2022-09-23T15:14:39.839Z,76926.88
2022-09-23T15:17:21.322Z,76914.88
2022-09-23T15:19:52.676Z,76914.88
2022-09-23T15:22:19.092Z,76914.88
2022-09-23T15:24:45.980Z,76910.88
2022-09-23T15:27:24.305Z,76914.88
2022-09-23T15:29:51.024Z,76914.88
2022-09-23T15:32:17.491Z,76914.88
2022-09-23T15:34:43.845Z,76910.88
2022-09-23T15:37:13.353Z,76914.88
2022-09-23T15:39:39.739Z,76912.88
2022-09-23T15:42:10.293Z,76914.88
2022-09-23T15:44:36.819Z,76914.88
2022-09-23T15:47:03.464Z,76908.88
2022-09-23T15:49:37.773Z,76904.88
2022-09-23T15:52:05.111Z,76902.88
2022-09-23T15:54:32.643Z,76896.84
2022-09-23T15:57:00.476Z,76902.88
2022-09-23T15:59:27.638Z,76900.88
2022-09-23T16:01:54.658Z,76898.88
2022-09-23T16:04:26.265Z,76902.88
2022-09-23T16:06:53.080Z,76892.84
2022-09-23T16:09:19.468Z,76890.84
2022-09-23T16:11:47.265Z,76882.84
2022-09-23T16:14:14.944Z,76870.84
2022-09-23T16:16:42.635Z,76866.84
2022-09-23T16:19:09.262Z,76868.84
2022-09-23T16:21:35.721Z,76868.84
2022-09-23T16:24:02.388Z,76868.84
2022-09-23T16:26:34.786Z,76874.84
2022-09-23T16:29:01.728Z,76878.84
2022-09-23T16:31:31.510Z,76876.84
2022-09-23T16:34:02.153Z,76876.84
2022-09-23T16:36:31.128Z,76890.84
2022-09-23T16:39:02.321Z,76884.84
2022-09-23T16:41:33.790Z,76872.84
2022-09-23T16:44:01.070Z,76876.84
2022-09-23T16:46:29.204Z,76870.84
2022-09-23T16:48:57.646Z,76876.84
2022-09-23T16:51:26.626Z,76876.84
2022-09-23T16:53:54.102Z,76872.84
2022-09-23T16:56:27.241Z,76876.84
2022-09-23T16:58:55.327Z,76870.84
2022-09-23T17:01:41.552Z,76868.84
2022-09-23T17:04:08.316Z,76864.84
2022-09-23T17:06:34.690Z,76866.84
2022-09-23T17:09:01.108Z,76864.84
2022-09-23T17:11:32.146Z,76866.84
2022-09-23T17:14:00.962Z,76864.84
2022-09-23T17:16:30.873Z,76866.84
2022-09-23T17:18:57.385Z,76866.84
2022-09-23T17:21:27.904Z,76866.84
2022-09-23T17:23:54.947Z,76862.84
2022-09-23T17:26:22.186Z,76866.84
2022-09-23T17:28:48.821Z,76866.84
2022-09-23T17:31:15.199Z,76864.84
2022-09-23T17:33:41.595Z,76866.84
2022-09-23T17:36:12.359Z,76866.84
2022-09-23T17:38:41.987Z,76862.84
2022-09-23T17:41:08.893Z,76862.84
2022-09-23T17:43:35.729Z,76864.84
2022-09-23T17:46:06.331Z,76862.84
2022-09-23T17:48:37.318Z,76874.84
2022-09-23T17:51:05.161Z,76874.84
2022-09-23T17:53:32.623Z,76878.84
2022-09-23T17:56:00.104Z,76886.84
2022-09-23T17:58:27.613Z,76882.84
2022-09-23T18:00:54.514Z,76886.84
2022-09-23T18:03:20.980Z,76886.84
2022-09-23T18:05:47.324Z,76886.84
2022-09-23T18:08:13.691Z,76886.84
2022-09-23T18:10:40.107Z,76882.84
2022-09-23T18:13:06.560Z,76882.84
2022-09-23T18:15:36.885Z,76884.84
2022-09-23T18:18:03.651Z,76878.84
2022-09-23T18:20:30.423Z,76878.84
2022-09-23T18:22:57.139Z,76884.84
2022-09-23T18:25:38.639Z,76886.84
2022-09-23T18:28:06.201Z,76890.84
2022-09-23T18:30:33.558Z,76886.84
2022-09-23T18:33:00.125Z,76880.84
2022-09-23T18:35:26.543Z,76878.84
2022-09-23T18:37:52.924Z,76884.84
2022-09-23T18:40:19.348Z,76878.84
2022-09-23T18:42:45.855Z,76882.84
2022-09-23T18:45:12.350Z,76886.84
2022-09-23T18:48:05.109Z,76882.84
2022-09-23T18:50:40.842Z,76882.84
2022-09-23T18:53:08.263Z,76878.84
2022-09-23T18:55:35.488Z,76882.84
2022-09-23T18:58:02.375Z,76884.84
2022-09-23T19:00:28.922Z,76884.84
2022-09-23T19:02:55.518Z,76882.84
2022-09-23T19:05:21.970Z,76888.84
2022-09-23T19:07:48.300Z,76894.84
2022-09-23T19:10:14.767Z,76890.84
2022-09-23T19:12:41.143Z,76886.84
2022-09-23T19:15:08.177Z,76886.84
2022-09-23T19:17:34.624Z,76890.84
2022-09-23T19:20:01.071Z,76886.84
2022-09-23T19:22:27.710Z,76882.84
2022-09-23T19:24:54.062Z,76880.84
2022-09-23T19:27:20.410Z,76882.84
2022-09-23T19:29:47.440Z,76878.84
2022-09-23T19:32:16.031Z,76874.84
2022-09-23T19:34:43.663Z,76874.84
2022-09-23T19:37:10.075Z,76870.84
2022-09-23T19:39:37.622Z,76870.84
2022-09-23T19:42:04.057Z,76874.84
2022-09-23T19:44:30.393Z,76874.84
2022-09-23T19:46:57.471Z,76870.84
2022-09-23T19:49:25.107Z,76874.84
2022-09-23T19:51:52.155Z,76870.84
2022-09-23T19:54:20.648Z,76870.84
2022-09-23T19:56:48.624Z,76870.84
2022-09-23T19:59:18.733Z,76870.84
2022-09-23T20:01:45.884Z,76872.84
2022-09-23T20:04:12.339Z,76872.84
2022-09-23T20:06:38.905Z,76870.84
2022-09-23T20:09:05.703Z,76870.84
2022-09-23T20:11:32.513Z,76876.84
2022-09-23T20:14:04.769Z,76870.84
2022-09-23T20:16:32.993Z,76874.84
2022-09-23T20:19:00.323Z,76874.84
2022-09-23T20:21:28.321Z,76880.84
2022-09-23T20:23:54.839Z,76874.84
2022-09-23T20:26:40.030Z,76874.84
2022-09-23T20:29:06.509Z,76876.84
2022-09-23T20:31:34.640Z,76876.84
2022-09-23T20:34:05.544Z,76878.84
2022-09-23T20:36:33.255Z,76882.84
2022-09-23T20:39:00.740Z,76870.84
2022-09-23T20:41:28.237Z,76876.84
2022-09-23T20:43:55.584Z,76872.84
2022-09-23T20:46:25.135Z,76874.84
2022-09-23T20:48:51.619Z,76874.84
2022-09-23T20:51:18.047Z,76870.84
2022-09-23T20:53:44.515Z,76872.84
2022-09-23T20:56:10.884Z,76878.84
2022-09-23T20:58:37.282Z,76874.84
2022-09-23T21:01:04.895Z,76874.84
2022-09-23T21:03:31.891Z,76874.84
2022-09-23T21:06:03.453Z,76870.84
2022-09-23T21:08:31.056Z,76870.84
2022-09-23T21:10:58.072Z,76868.84
2022-09-23T21:13:24.647Z,76870.84
2022-09-23T21:15:51.040Z,76870.84
2022-09-23T21:18:22.277Z,76870.84
2022-09-23T21:20:55.812Z,76870.84
2022-09-23T21:23:29.638Z,76866.84
2022-09-23T21:26:01.868Z,76872.84
2022-09-23T21:28:32.212Z,76866.84
2022-09-23T21:30:59.561Z,76866.84
2022-09-23T21:33:25.950Z,76866.84
2022-09-23T21:35:55.673Z,76866.84
2022-09-23T21:38:22.784Z,76864.84
2022-09-23T21:40:59.363Z,76864.84
2022-09-23T21:43:27.520Z,76866.84
2022-09-23T21:45:59.440Z,76864.84
2022-09-23T21:48:26.873Z,76862.84
2022-09-23T21:51:06.695Z,76864.84
2022-09-23T21:53:33.869Z,76862.84
2022-09-23T21:56:20.464Z,76858.84
2022-09-23T21:58:47.498Z,76862.84
2022-09-23T22:01:15.826Z,76864.84
2022-09-23T22:03:43.594Z,76866.84
2022-09-23T22:06:14.455Z,76862.84
2022-09-23T22:08:42.324Z,76862.84
2022-09-23T22:11:30.328Z,76866.84
2022-09-23T22:13:57.266Z,76862.84
2022-09-23T22:16:23.964Z,76862.84
2022-09-23T22:18:52.130Z,76860.84
2022-09-23T22:21:20.100Z,76862.84
2022-09-23T22:23:46.836Z,76854.81
2022-09-23T22:26:13.159Z,76856.81
2022-09-23T22:28:58.416Z,76858.84
2022-09-23T22:31:43.310Z,76858.84
2022-09-23T22:34:25.533Z,76854.81
2022-09-23T22:36:58.911Z,76852.81
2022-09-23T22:39:26.008Z,76850.81
2022-09-23T22:41:52.379Z,76854.81
2022-09-23T22:44:19.496Z,76850.81
2022-09-23T22:46:46.734Z,76846.81
2022-09-23T22:49:13.670Z,76850.81
2022-09-23T22:51:40.482Z,76852.81
2022-09-23T22:54:07.308Z,76846.81
2022-09-23T22:56:33.652Z,76850.81
2022-09-23T22:59:03.791Z,76850.81
2022-09-23T23:01:30.570Z,76850.81
2022-09-23T23:04:03.350Z,76842.81
2022-09-23T23:06:35.933Z,76846.81
2022-09-23T23:09:05.616Z,76842.81
2022-09-23T23:11:32.023Z,76842.81
2022-09-23T23:14:02.312Z,76846.81
2022-09-23T23:16:30.431Z,76852.81
2022-09-23T23:18:56.796Z,76856.81
2022-09-23T23:21:23.193Z,76844.81
2022-09-23T23:23:51.178Z,76846.81
2022-09-23T23:26:22.139Z,76846.81
2022-09-23T23:28:49.600Z,76842.81
2022-09-23T23:31:17.201Z,76846.81
2022-09-23T23:33:44.366Z,76838.81
2022-09-23T23:36:12.045Z,76842.81
2022-09-23T23:38:39.137Z,76838.81
2022-09-23T23:41:06.663Z,76838.81
2022-09-23T23:43:33.037Z,76838.81
2022-09-23T23:46:00.370Z,76838.81
2022-09-23T23:48:28.170Z,76838.81
2022-09-23T23:50:58.787Z,76838.81
2022-09-23T23:53:26.056Z,76842.81
2022-09-23T23:55:52.399Z,76840.81
2022-09-23T23:58:18.786Z,76840.81
